createdAt,value
2023-05-06T00:01:24.405Z,7.93
2023-05-06T00:04:27.075Z,7.89
2023-05-06T00:07:29.090Z,7.89
2023-05-06T00:10:30.946Z,7.85
2023-05-06T00:13:32.746Z,7.82
2023-05-06T00:16:34.733Z,7.80
2023-05-06T00:19:36.626Z,7.77
2023-05-06T00:22:38.716Z,7.75
2023-05-06T00:25:40.510Z,7.70
2023-05-06T00:28:42.405Z,7.66
2023-05-06T00:31:45.477Z,7.62
2023-05-06T00:34:47.755Z,7.59
2023-05-06T00:38:07.883Z,7.56
2023-05-06T00:41:10.323Z,7.52
2023-05-06T00:44:12.353Z,7.47
2023-05-06T00:47:14.530Z,7.41
2023-05-06T00:50:16.844Z,7.35
2023-05-06T00:53:23.708Z,7.32
2023-05-06T00:56:25.628Z,7.28
2023-05-06T00:59:27.932Z,7.27
2023-05-06T01:02:43.407Z,7.27
2023-05-06T01:05:53.392Z,7.25
2023-05-06T01:09:06.154Z,7.24
2023-05-06T01:12:17.225Z,7.19
2023-05-06T01:15:36.111Z,7.17
2023-05-06T01:18:38.721Z,7.12
2023-05-06T01:21:43.431Z,7.09
2023-05-06T01:24:47.111Z,7.05
2023-05-06T01:27:50.114Z,6.99
2023-05-06T01:31:01.291Z,6.97
2023-05-06T01:34:38.247Z,6.96
2023-05-06T01:37:46.663Z,6.95
2023-05-06T01:40:54.334Z,6.94
2023-05-06T01:43:58.380Z,6.93
2023-05-06T01:47:01.614Z,6.93
2023-05-06T01:50:03.650Z,6.91
2023-05-06T01:53:05.584Z,6.89
2023-05-06T01:56:07.861Z,6.86
2023-05-06T01:59:09.702Z,6.84
2023-05-06T02:02:11.614Z,6.83
2023-05-06T02:05:13.552Z,6.80
2023-05-06T02:08:21.558Z,6.78
2023-05-06T02:11:23.509Z,6.75
2023-05-06T02:14:27.985Z,6.73
2023-05-06T02:17:30.621Z,6.73
2023-05-06T02:20:32.469Z,6.74
2023-05-06T02:23:35.078Z,6.77
2023-05-06T02:26:36.904Z,6.78
2023-05-06T02:29:39.240Z,6.81
2023-05-06T02:32:41.658Z,6.84
2023-05-06T02:35:43.534Z,6.84
2023-05-06T02:38:45.467Z,6.89
2023-05-06T02:41:47.252Z,6.90
2023-05-06T02:44:49.183Z,6.94
2023-05-06T02:47:51.119Z,7.00
2023-05-06T02:50:53.020Z,7.09
2023-05-06T02:53:54.952Z,7.15
2023-05-06T02:56:56.867Z,7.23
2023-05-06T02:59:58.820Z,7.31
2023-05-06T03:03:01.286Z,7.40
2023-05-06T03:06:03.307Z,7.47
2023-05-06T03:09:05.329Z,7.57
2023-05-06T03:12:07.382Z,7.66
2023-05-06T03:15:10.191Z,7.78
2023-05-06T03:18:13.288Z,7.86
2023-05-06T03:21:15.920Z,7.96
2023-05-06T03:24:20.351Z,8.03
2023-05-06T03:27:23.336Z,8.12
2023-05-06T03:30:29.085Z,8.22
2023-05-06T03:33:34.262Z,8.28
2023-05-06T03:36:37.009Z,8.38
2023-05-06T03:39:39.181Z,8.49
2023-05-06T03:42:41.310Z,8.62
2023-05-06T03:45:44.032Z,8.84
2023-05-06T03:48:46.009Z,9.10
2023-05-06T03:51:51.152Z,9.34
2023-05-06T03:54:53.913Z,9.52
2023-05-06T03:57:56.028Z,9.78
2023-05-06T04:01:00.957Z,10.13
2023-05-06T04:04:03.470Z,10.36
2023-05-06T04:07:06.102Z,10.52
2023-05-06T04:10:08.625Z,10.82
2023-05-06T04:13:10.794Z,10.98
2023-05-06T04:16:17.461Z,11.22
2023-05-06T04:19:20.668Z,11.44
2023-05-06T04:22:23.332Z,11.65
2023-05-06T04:25:25.345Z,11.78
2023-05-06T04:28:27.307Z,11.98
2023-05-06T04:31:29.474Z,12.04
2023-05-06T04:34:37.036Z,12.07
2023-05-06T04:37:41.467Z,12.27
2023-05-06T04:40:49.748Z,12.45
2023-05-06T04:43:51.655Z,12.64
2023-05-06T04:46:57.827Z,12.92
2023-05-06T04:50:00.335Z,13.01
2023-05-06T04:53:03.060Z,13.01
2023-05-06T04:56:05.564Z,13.20
2023-05-06T04:59:08.212Z,13.44
2023-05-06T05:02:10.246Z,13.65
2023-05-06T05:05:14.339Z,13.72
2023-05-06T05:08:18.646Z,13.93
2023-05-06T05:11:20.719Z,13.88
2023-05-06T05:14:22.613Z,14.02
2023-05-06T05:17:24.916Z,14.18
2023-05-06T05:20:27.453Z,14.21
2023-05-06T05:23:29.325Z,14.35
2023-05-06T05:26:31.202Z,14.45
2023-05-06T05:29:34.950Z,14.76
2023-05-06T05:32:40.619Z,14.91
2023-05-06T05:35:42.569Z,15.09
2023-05-06T05:38:45.507Z,15.06
2023-05-06T05:41:47.538Z,15.10
2023-05-06T05:44:49.530Z,15.29
2023-05-06T05:47:54.193Z,15.36
2023-05-06T05:50:57.476Z,15.47
2023-05-06T05:53:59.759Z,15.60
2023-05-06T05:57:03.074Z,15.68
2023-05-06T06:00:06.818Z,16.00
2023-05-06T06:03:19.263Z,16.10
2023-05-06T06:06:21.591Z,16.25
2023-05-06T06:09:24.609Z,16.43
2023-05-06T06:12:27.326Z,16.53
2023-05-06T06:15:29.556Z,16.61
2023-05-06T06:18:31.518Z,16.56
2023-05-06T06:21:33.545Z,16.63
2023-05-06T06:24:36.323Z,16.67
2023-05-06T06:27:40.398Z,17.01
2023-05-06T06:30:43.632Z,16.88
2023-05-06T06:33:45.581Z,16.82
2023-05-06T06:36:47.829Z,17.10
2023-05-06T06:39:49.718Z,17.18
2023-05-06T06:42:51.731Z,17.20
2023-05-06T06:46:12.428Z,17.25
2023-05-06T06:49:14.299Z,17.30
2023-05-06T06:52:16.151Z,17.50
2023-05-06T06:55:18.129Z,17.34
2023-05-06T06:58:20.009Z,17.43
2023-05-06T07:01:22.051Z,17.62
2023-05-06T07:04:25.805Z,17.73
2023-05-06T07:07:27.736Z,17.91
2023-05-06T07:10:29.631Z,17.57
2023-05-06T07:13:31.434Z,17.94
2023-05-06T07:16:33.390Z,18.19
2023-05-06T07:19:35.512Z,18.41
2023-05-06T07:22:37.568Z,18.13
2023-05-06T07:25:39.440Z,18.30
2023-05-06T07:28:41.306Z,18.39
2023-05-06T07:31:43.396Z,18.42
2023-05-06T07:34:45.414Z,18.41
2023-05-06T07:37:47.684Z,18.39
2023-05-06T07:40:50.146Z,18.50
2023-05-06T07:43:51.877Z,18.64
2023-05-06T07:46:54.213Z,19.08
2023-05-06T07:49:56.434Z,18.01
2023-05-06T07:52:58.489Z,17.42
2023-05-06T07:56:02.607Z,18.05
2023-05-06T07:59:04.500Z,18.03
2023-05-06T08:02:06.992Z,18.39
2023-05-06T08:05:09.448Z,18.82
2023-05-06T08:08:11.570Z,18.54
2023-05-06T08:11:13.615Z,18.56
2023-05-06T08:14:15.586Z,18.48
2023-05-06T08:17:17.617Z,18.55
2023-05-06T08:20:19.566Z,18.79
2023-05-06T08:23:21.561Z,18.69
2023-05-06T08:26:23.431Z,18.83
2023-05-06T08:29:25.378Z,19.04
2023-05-06T08:32:27.310Z,18.99
2023-05-06T08:35:29.339Z,18.86
2023-05-06T08:38:31.282Z,18.51
2023-05-06T08:41:35.864Z,17.93
2023-05-06T08:44:38.314Z,17.52
2023-05-06T08:47:40.579Z,17.42
2023-05-06T08:50:43.449Z,17.20
2023-05-06T08:53:49.250Z,17.42
2023-05-06T08:56:57.195Z,17.03
2023-05-06T08:59:59.483Z,16.69
2023-05-06T09:03:01.902Z,16.74
2023-05-06T09:06:04.680Z,17.05
2023-05-06T09:09:06.559Z,17.54
2023-05-06T09:12:15.078Z,17.74
2023-05-06T09:15:16.966Z,17.63
2023-05-06T09:18:18.872Z,17.82
2023-05-06T09:21:21.046Z,17.93
2023-05-06T09:24:23.910Z,18.14
2023-05-06T09:27:27.657Z,18.44
2023-05-06T09:30:29.573Z,18.65
2023-05-06T09:33:32.779Z,18.26
2023-05-06T09:36:34.693Z,17.59
2023-05-06T09:39:36.644Z,17.75
2023-05-06T09:42:38.675Z,18.13
2023-05-06T09:45:43.303Z,17.96
2023-05-06T09:48:46.667Z,17.85
2023-05-06T09:51:51.722Z,18.14
2023-05-06T09:54:54.207Z,18.57
2023-05-06T09:57:57.019Z,18.72
2023-05-06T10:00:59.624Z,18.51
2023-05-06T10:04:05.067Z,18.40
2023-05-06T10:07:11.662Z,18.49
2023-05-06T10:10:14.389Z,18.23
2023-05-06T10:13:17.154Z,18.62
2023-05-06T10:16:19.772Z,18.72
2023-05-06T10:19:24.195Z,17.91
2023-05-06T10:22:41.529Z,17.59
2023-05-06T10:25:48.078Z,17.54
2023-05-06T10:29:38.382Z,17.32
2023-05-06T10:32:43.377Z,17.24
2023-05-06T10:35:53.145Z,17.16
2023-05-06T10:38:56.942Z,17.69
2023-05-06T10:41:58.870Z,17.85
2023-05-06T10:45:06.208Z,17.94
2023-05-06T10:48:14.420Z,17.62
2023-05-06T10:51:16.585Z,17.50
2023-05-06T10:54:19.624Z,17.01
2023-05-06T10:57:26.964Z,16.79
2023-05-06T11:00:35.206Z,17.00
2023-05-06T11:03:37.630Z,17.02
2023-05-06T11:06:42.414Z,16.70
2023-05-06T11:09:58.549Z,17.01
2023-05-06T11:13:23.706Z,16.99
2023-05-06T11:16:48.693Z,17.16
2023-05-06T11:20:10.820Z,17.26
2023-05-06T11:23:12.861Z,16.88
2023-05-06T11:26:16.052Z,16.87
2023-05-06T11:29:19.055Z,16.79
2023-05-06T11:32:29.133Z,16.92
2023-05-06T11:35:38.001Z,17.09
2023-05-06T11:38:44.902Z,17.56
2023-05-06T11:41:46.920Z,17.15
2023-05-06T11:44:48.874Z,16.51
2023-05-06T11:47:54.800Z,16.23
2023-05-06T11:50:57.057Z,16.05
2023-05-06T11:54:11.025Z,15.82
2023-05-06T11:57:13.632Z,15.57
2023-05-06T12:00:15.722Z,15.27
2023-05-06T12:03:18.772Z,15.27
2023-05-06T12:06:32.785Z,15.07
2023-05-06T12:09:37.072Z,15.31
2023-05-06T12:12:39.218Z,15.46
2023-05-06T12:15:41.365Z,15.43
2023-05-06T12:18:43.969Z,15.77
2023-05-06T12:21:46.434Z,16.04
2023-05-06T12:24:49.568Z,16.44
2023-05-06T12:27:51.573Z,16.38
2023-05-06T12:30:53.476Z,16.61
2023-05-06T12:33:58.034Z,16.39
2023-05-06T12:37:01.106Z,16.32
2023-05-06T12:40:03.036Z,16.17
2023-05-06T12:43:04.976Z,16.13
2023-05-06T12:46:07.964Z,15.93
2023-05-06T12:49:09.935Z,15.69
2023-05-06T12:52:11.962Z,15.37
2023-05-06T12:55:13.850Z,15.18
2023-05-06T12:58:17.255Z,15.21
2023-05-06T13:01:22.140Z,15.39
2023-05-06T13:04:24.050Z,15.59
2023-05-06T13:07:25.951Z,15.55
2023-05-06T13:10:27.791Z,15.24
2023-05-06T13:13:29.665Z,15.20
2023-05-06T13:16:32.693Z,15.06
2023-05-06T13:19:35.016Z,14.76
2023-05-06T13:22:50.731Z,14.59
2023-05-06T13:26:04.095Z,14.48
2023-05-06T13:29:06.520Z,14.04
2023-05-06T13:32:09.120Z,13.61
2023-05-06T13:35:11.357Z,13.74
2023-05-06T13:38:13.352Z,13.75
2023-05-06T13:41:15.533Z,13.90
2023-05-06T13:44:18.820Z,13.82
2023-05-06T13:47:20.740Z,13.67
2023-05-06T13:50:22.582Z,13.56
2023-05-06T13:53:24.404Z,13.58
2023-05-06T13:56:26.338Z,13.75
2023-05-06T13:59:28.221Z,13.88
2023-05-06T14:02:30.787Z,13.86
2023-05-06T14:05:32.797Z,13.95
2023-05-06T14:08:34.689Z,14.17
2023-05-06T14:11:36.808Z,14.35
2023-05-06T14:14:38.666Z,14.16
2023-05-06T14:17:41.061Z,14.11
2023-05-06T14:20:43.055Z,13.97
2023-05-06T14:23:44.897Z,13.74
2023-05-06T14:26:46.767Z,13.63
2023-05-06T14:29:48.801Z,13.65
2023-05-06T14:32:50.617Z,13.52
2023-05-06T14:35:52.894Z,13.60
2023-05-06T14:38:54.716Z,13.60
2023-05-06T14:41:56.616Z,13.93
2023-05-06T14:44:58.490Z,14.07
2023-05-06T14:48:00.557Z,13.85
2023-05-06T14:51:02.376Z,13.52
2023-05-06T14:54:04.374Z,13.47
2023-05-06T14:57:06.288Z,13.55
2023-05-06T15:00:10.186Z,13.39
2023-05-06T15:03:12.207Z,13.25
2023-05-06T15:06:14.085Z,13.26
2023-05-06T15:09:16.088Z,13.26
2023-05-06T15:12:18.070Z,13.19
2023-05-06T15:15:20.072Z,13.12
2023-05-06T15:18:21.973Z,12.89
2023-05-06T15:21:23.827Z,12.73
2023-05-06T15:24:27.256Z,12.42
2023-05-06T15:27:31.472Z,12.32
2023-05-06T15:30:33.318Z,12.23
2023-05-06T15:33:35.515Z,12.14
2023-05-06T15:36:38.598Z,12.09
2023-05-06T15:39:40.534Z,11.99
2023-05-06T15:42:42.456Z,11.90
2023-05-06T15:45:44.402Z,11.94
2023-05-06T15:48:46.390Z,11.82
2023-05-06T15:51:48.303Z,11.71
2023-05-06T15:54:51.160Z,11.60
2023-05-06T15:57:54.656Z,11.37
2023-05-06T16:00:57.097Z,11.28
2023-05-06T16:04:07.938Z,11.25
2023-05-06T16:07:09.975Z,11.20
2023-05-06T16:10:12.121Z,11.09
2023-05-06T16:13:14.335Z,10.99
2023-05-06T16:16:16.323Z,10.94
2023-05-06T16:19:18.652Z,10.85
2023-05-06T16:22:20.559Z,10.76
2023-05-06T16:25:23.179Z,10.60
2023-05-06T16:28:25.002Z,10.49
2023-05-06T16:31:26.925Z,10.48
2023-05-06T16:34:28.748Z,10.48
2023-05-06T16:37:31.166Z,10.24
2023-05-06T16:40:42.684Z,10.22
2023-05-06T16:43:44.477Z,10.16
2023-05-06T16:46:46.592Z,10.09
2023-05-06T16:49:48.679Z,10.00
2023-05-06T16:52:50.619Z,9.91
2023-05-06T16:55:52.649Z,9.85
2023-05-06T16:58:54.551Z,9.77
2023-05-06T17:01:56.444Z,9.68
2023-05-06T17:04:58.295Z,9.65
2023-05-06T17:08:00.245Z,9.56
2023-05-06T17:11:05.320Z,9.38
2023-05-06T17:14:07.278Z,9.36
2023-05-06T17:17:09.079Z,9.29
2023-05-06T17:20:11.531Z,9.28
2023-05-06T17:23:13.620Z,9.17
2023-05-06T17:26:17.837Z,9.07
2023-05-06T17:29:22.192Z,8.97
2023-05-06T17:32:25.133Z,8.96
2023-05-06T17:35:26.920Z,8.84
2023-05-06T17:38:28.833Z,8.79
2023-05-06T17:41:31.654Z,8.71
2023-05-06T17:44:35.339Z,8.68
2023-05-06T17:47:37.203Z,8.60
2023-05-06T17:50:39.130Z,8.54
2023-05-06T17:53:40.991Z,8.49
2023-05-06T17:56:49.219Z,8.45
2023-05-06T17:59:51.076Z,8.40
2023-05-06T18:02:53.122Z,8.38
2023-05-06T18:05:55.099Z,8.27
2023-05-06T18:08:57.010Z,8.25
2023-05-06T18:11:59.112Z,8.22
2023-05-06T18:15:01.504Z,8.17
2023-05-06T18:18:03.722Z,8.09
2023-05-06T18:21:05.700Z,8.03
2023-05-06T18:24:15.907Z,7.98
2023-05-06T18:27:18.078Z,7.93
2023-05-06T18:30:20.012Z,7.89
2023-05-06T18:33:21.969Z,7.86
2023-05-06T18:36:24.204Z,7.81
2023-05-06T18:39:27.309Z,7.76
2023-05-06T18:42:29.284Z,7.70
2023-05-06T18:45:31.176Z,7.67
2023-05-06T18:48:33.063Z,7.55
2023-05-06T18:51:36.243Z,7.55
2023-05-06T18:54:39.663Z,7.50
2023-05-06T18:57:41.877Z,7.46
2023-05-06T19:00:44.442Z,7.38
2023-05-06T19:03:46.974Z,7.32
2023-05-06T19:06:48.828Z,7.27
2023-05-06T19:09:50.720Z,7.21
2023-05-06T19:12:52.701Z,7.15
2023-05-06T19:15:54.783Z,7.08
2023-05-06T19:18:56.703Z,7.00
2023-05-06T19:21:59.866Z,6.97
2023-05-06T19:25:01.765Z,6.90
2023-05-06T19:28:05.026Z,6.85
2023-05-06T19:31:11.425Z,6.77
2023-05-06T19:34:13.497Z,6.72
2023-05-06T19:37:15.356Z,6.60
2023-05-06T19:40:19.007Z,6.58
2023-05-06T19:43:23.171Z,6.55
2023-05-06T19:46:25.099Z,6.49
2023-05-06T19:49:27.088Z,6.43
2023-05-06T19:52:31.260Z,6.36
2023-05-06T19:55:33.165Z,6.30
2023-05-06T19:58:35.075Z,6.23
2023-05-06T20:01:36.945Z,6.19
2023-05-06T20:04:38.835Z,6.13
2023-05-06T20:07:41.464Z,6.10
2023-05-06T20:10:43.571Z,6.01
2023-05-06T20:13:45.470Z,5.99
2023-05-06T20:16:47.520Z,5.95
2023-05-06T20:19:49.896Z,5.94
2023-05-06T20:22:51.711Z,5.88
2023-05-06T20:25:53.574Z,5.85
2023-05-06T20:28:55.511Z,5.79
2023-05-06T20:31:57.518Z,5.72
2023-05-06T20:34:59.446Z,5.67
2023-05-06T20:38:02.041Z,5.64
2023-05-06T20:41:03.968Z,5.58
2023-05-06T20:44:05.926Z,5.56
2023-05-06T20:47:12.417Z,5.54
2023-05-06T20:50:17.351Z,5.52
2023-05-06T20:53:19.367Z,5.49
2023-05-06T20:56:24.925Z,5.43
2023-05-06T20:59:29.407Z,5.37
2023-05-06T21:02:32.985Z,5.30
2023-05-06T21:05:36.280Z,5.25
2023-05-06T21:08:38.270Z,5.18
2023-05-06T21:11:40.068Z,5.15
2023-05-06T21:14:41.979Z,5.10
2023-05-06T21:17:43.876Z,5.03
2023-05-06T21:20:46.062Z,4.98
2023-05-06T21:23:48.126Z,4.96
2023-05-06T21:26:51.355Z,4.90
2023-05-06T21:29:53.339Z,4.85
2023-05-06T21:32:55.269Z,4.81
2023-05-06T21:35:57.188Z,4.74
2023-05-06T21:39:08.438Z,4.73
2023-05-06T21:42:10.353Z,4.68
2023-05-06T21:45:12.721Z,4.69
2023-05-06T21:48:14.709Z,4.70
2023-05-06T21:51:16.672Z,4.66
2023-05-06T21:54:18.480Z,4.62
2023-05-06T21:57:20.406Z,4.57
2023-05-06T22:00:23.045Z,4.51
2023-05-06T22:03:25.252Z,4.43
2023-05-06T22:06:27.226Z,4.39
2023-05-06T22:09:29.092Z,4.39
2023-05-06T22:12:31.998Z,4.38
2023-05-06T22:15:33.878Z,4.39
2023-05-06T22:18:36.108Z,4.38
2023-05-06T22:21:38.057Z,4.35
2023-05-06T22:24:39.910Z,4.32
2023-05-06T22:27:41.776Z,4.24
2023-05-06T22:30:43.716Z,4.21
2023-05-06T22:33:47.615Z,4.20
2023-05-06T22:36:49.568Z,4.18
2023-05-06T22:39:53.047Z,4.17
2023-05-06T22:42:55.835Z,4.15
2023-05-06T22:45:57.700Z,4.13
2023-05-06T22:49:00.190Z,4.09
2023-05-06T22:52:02.356Z,4.04
2023-05-06T22:55:05.966Z,4.00
2023-05-06T22:58:07.824Z,4.03
2023-05-06T23:01:09.847Z,4.07
2023-05-06T23:04:11.774Z,4.07
2023-05-06T23:07:13.977Z,4.09
2023-05-06T23:10:15.864Z,4.06
2023-05-06T23:13:17.821Z,4.06
2023-05-06T23:16:19.714Z,4.06
2023-05-06T23:19:21.880Z,4.06
2023-05-06T23:22:23.805Z,4.04
2023-05-06T23:25:27.031Z,4.07
2023-05-06T23:28:29.209Z,4.06
2023-05-06T23:31:31.136Z,4.06
2023-05-06T23:34:33.049Z,4.08
2023-05-06T23:37:35.053Z,4.14
2023-05-06T23:40:36.872Z,4.15
2023-05-06T23:43:38.784Z,4.14
2023-05-06T23:46:40.653Z,4.13
2023-05-06T23:49:42.634Z,4.12
2023-05-06T23:52:44.580Z,4.11
2023-05-06T23:55:46.863Z,4.06
2023-05-06T23:58:48.863Z,4.05
